createdAt,value
2022-08-19T00:02:05.950Z,21.74
2022-08-19T00:07:08.386Z,21.67
2022-08-19T00:12:11.943Z,21.50
2022-08-19T00:17:14.170Z,21.31
2022-08-19T00:22:16.302Z,21.32
2022-08-19T00:27:25.060Z,21.29
2022-08-19T00:32:28.622Z,21.33
2022-08-19T00:37:32.027Z,21.30
2022-08-19T00:42:35.614Z,21.23
2022-08-19T00:47:37.679Z,21.17
2022-08-19T00:52:43.815Z,21.07
2022-08-19T00:57:56.224Z,21.00
2022-08-19T01:02:58.722Z,21.04
2022-08-19T01:08:03.287Z,21.08
2022-08-19T01:13:06.745Z,20.97
2022-08-19T01:18:12.351Z,20.94
2022-08-19T01:23:17.282Z,20.93
2022-08-19T01:28:33.624Z,20.85
2022-08-19T01:33:42.159Z,20.89
2022-08-19T01:38:46.239Z,20.94
2022-08-19T01:44:09.789Z,20.92
2022-08-19T01:49:11.320Z,20.84
2022-08-19T01:54:23.450Z,20.73
2022-08-19T01:59:32.286Z,20.64
2022-08-19T02:04:34.779Z,20.54
2022-08-19T02:09:39.234Z,20.36
2022-08-19T02:14:41.841Z,20.35
2022-08-19T02:19:44.029Z,20.36
2022-08-19T02:24:47.106Z,20.31
2022-08-19T02:29:50.900Z,20.32
2022-08-19T02:34:52.999Z,20.28
2022-08-19T02:39:56.655Z,20.29
2022-08-19T02:44:58.526Z,20.30
2022-08-19T02:50:02.807Z,20.30
2022-08-19T02:55:08.026Z,20.29
2022-08-19T03:00:10.987Z,20.30
2022-08-19T03:05:12.996Z,20.29
2022-08-19T03:10:16.708Z,20.27
2022-08-19T03:15:20.146Z,20.27
2022-08-19T03:20:21.884Z,20.23
2022-08-19T03:25:25.495Z,20.24
2022-08-19T03:30:27.243Z,20.24
2022-08-19T03:35:29.533Z,20.19
2022-08-19T03:40:33.604Z,20.21
2022-08-19T03:45:35.808Z,20.18
2022-08-19T03:50:40.197Z,20.17
2022-08-19T03:55:43.867Z,20.12
2022-08-19T04:00:45.652Z,20.10
2022-08-19T04:05:48.162Z,20.09
2022-08-19T04:10:51.588Z,20.13
2022-08-19T04:15:54.196Z,20.13
2022-08-19T04:20:56.313Z,20.19
2022-08-19T04:25:59.698Z,20.18
2022-08-19T04:31:01.379Z,20.23
2022-08-19T04:36:03.431Z,20.30
2022-08-19T04:41:06.811Z,20.37
2022-08-19T04:46:10.024Z,20.34
2022-08-19T04:51:14.201Z,20.49
2022-08-19T04:56:18.284Z,20.45
2022-08-19T05:01:22.916Z,20.40
2022-08-19T05:06:25.260Z,20.51
2022-08-19T05:11:31.748Z,20.67
2022-08-19T05:16:33.976Z,20.77
2022-08-19T05:21:37.239Z,20.84
2022-08-19T05:26:42.939Z,20.85
2022-08-19T05:31:46.116Z,21.86
2022-08-19T05:36:48.843Z,21.93
2022-08-19T05:41:55.402Z,21.86
2022-08-19T05:46:57.468Z,21.62
2022-08-19T05:51:59.391Z,21.58
2022-08-19T05:57:03.633Z,21.58
2022-08-19T06:02:07.128Z,21.31
2022-08-19T06:07:12.683Z,21.66
2022-08-19T06:12:15.961Z,22.29
2022-08-19T06:17:20.858Z,22.01
2022-08-19T06:22:23.633Z,22.19
2022-08-19T06:27:27.073Z,22.64
2022-08-19T06:32:28.792Z,22.52
2022-08-19T06:37:31.129Z,22.67
2022-08-19T06:42:34.494Z,22.71
2022-08-19T06:47:36.645Z,22.66
2022-08-19T06:52:38.715Z,22.70
2022-08-19T06:57:42.547Z,22.89
2022-08-19T07:02:49.758Z,22.50
2022-08-19T07:08:04.577Z,22.95
2022-08-19T07:13:07.995Z,23.19
2022-08-19T07:18:11.528Z,22.91
2022-08-19T07:23:16.029Z,22.97
2022-08-19T07:28:24.276Z,22.95
2022-08-19T07:33:27.834Z,23.17
2022-08-19T07:38:29.805Z,23.04
2022-08-19T07:43:34.890Z,23.21
2022-08-19T07:48:37.869Z,23.32
2022-08-19T07:53:40.157Z,23.19
2022-08-19T07:58:46.286Z,23.19
2022-08-19T08:03:49.131Z,23.52
2022-08-19T08:08:51.146Z,23.49
2022-08-19T08:14:00.760Z,23.81
2022-08-19T08:19:14.829Z,23.62
2022-08-19T08:24:29.205Z,23.61
2022-08-19T08:29:35.380Z,23.57
2022-08-19T08:34:37.462Z,23.35
2022-08-19T08:39:39.561Z,23.34
2022-08-19T08:50:04.715Z,23.19
2022-08-19T08:55:11.608Z,23.33
2022-08-19T09:00:19.187Z,23.54
2022-08-19T09:05:25.825Z,23.62
2022-08-19T09:10:33.113Z,23.63
2022-08-19T09:15:44.615Z,24.05
2022-08-19T09:20:47.754Z,24.08
2022-08-19T09:25:50.035Z,23.61
2022-08-19T09:30:53.916Z,23.55
2022-08-19T09:36:04.308Z,23.47
2022-08-19T09:41:14.526Z,23.42
2022-08-19T09:46:20.858Z,23.34
2022-08-19T09:51:27.651Z,23.00
2022-08-19T09:56:31.287Z,23.00
2022-08-19T10:01:37.675Z,22.86
2022-08-19T10:06:46.381Z,22.91
2022-08-19T10:11:54.665Z,22.82
2022-08-19T10:16:59.452Z,22.79
2022-08-19T10:22:04.536Z,23.00
2022-08-19T10:27:06.707Z,22.82
2022-08-19T10:32:12.216Z,22.85
2022-08-19T10:37:23.906Z,23.01
2022-08-19T10:42:32.110Z,23.18
2022-08-19T10:47:35.725Z,22.95
2022-08-19T10:52:39.064Z,22.85
2022-08-19T10:58:01.327Z,22.80
2022-08-19T11:03:04.262Z,22.48
2022-08-19T11:08:07.224Z,22.37
2022-08-19T11:13:25.356Z,22.50
2022-08-19T11:18:28.671Z,22.46
2022-08-19T11:23:30.773Z,22.48
2022-08-19T11:28:32.884Z,22.41
2022-08-19T11:33:36.401Z,22.55
2022-08-19T11:38:38.755Z,22.77
2022-08-19T11:43:40.816Z,22.81
2022-08-19T11:48:44.726Z,22.69
2022-08-19T11:53:47.362Z,22.82
2022-08-19T11:58:49.994Z,22.74
2022-08-19T12:03:56.122Z,22.38
2022-08-19T12:08:59.881Z,22.41
2022-08-19T12:14:03.335Z,22.35
2022-08-19T12:19:06.964Z,22.24
2022-08-19T12:24:08.942Z,22.24
2022-08-19T12:29:10.643Z,22.41
2022-08-19T12:34:14.236Z,22.51
2022-08-19T12:39:16.011Z,22.76
2022-08-19T12:44:18.540Z,22.71
2022-08-19T12:49:51.990Z,22.47
2022-08-19T12:54:45.548Z,22.57
2022-08-19T12:59:47.534Z,22.41
2022-08-19T13:04:50.965Z,22.40
2022-08-19T13:09:53.111Z,22.44
2022-08-19T13:14:56.036Z,22.40
2022-08-19T13:19:59.299Z,22.27
2022-08-19T13:25:00.982Z,22.44
2022-08-19T13:30:04.377Z,22.20
2022-08-19T13:35:08.221Z,22.45
2022-08-19T13:40:14.815Z,22.57
2022-08-19T13:45:19.462Z,22.35
2022-08-19T13:50:25.127Z,22.33
2022-08-19T13:55:28.010Z,22.38
2022-08-19T14:00:33.096Z,22.56
2022-08-19T14:05:38.162Z,22.49
2022-08-19T14:10:40.644Z,22.29
2022-08-19T14:15:42.365Z,22.28
2022-08-19T14:20:46.057Z,22.32
2022-08-19T14:25:47.770Z,22.32
2022-08-19T14:30:49.473Z,22.32
2022-08-19T14:35:59.692Z,22.34
2022-08-19T14:41:14.470Z,22.28
2022-08-19T14:46:19.069Z,22.16
2022-08-19T14:51:26.034Z,22.13
2022-08-19T14:56:30.046Z,22.16
2022-08-19T15:01:31.928Z,22.19
2022-08-19T15:06:35.251Z,22.21
2022-08-19T15:11:37.606Z,22.04
2022-08-19T15:16:39.307Z,22.06
2022-08-19T15:21:42.397Z,21.97
2022-08-19T15:26:44.150Z,21.97
2022-08-19T15:31:46.172Z,21.97
2022-08-19T15:36:52.690Z,21.88
2022-08-19T15:41:54.788Z,21.87
2022-08-19T15:46:56.936Z,21.76
2022-08-19T15:52:00.554Z,21.73
2022-08-19T15:57:02.213Z,21.80
2022-08-19T16:02:04.213Z,21.70
2022-08-19T16:07:07.652Z,21.73
2022-08-19T16:12:09.683Z,21.83
2022-08-19T16:17:13.474Z,22.02
2022-08-19T16:22:17.561Z,22.05
2022-08-19T16:27:19.351Z,22.04
2022-08-19T16:32:21.612Z,22.14
2022-08-19T16:37:24.999Z,22.05
2022-08-19T16:42:26.805Z,21.83
2022-08-19T16:47:28.681Z,21.75
2022-08-19T16:52:32.368Z,21.69
2022-08-19T16:57:34.358Z,21.70
2022-08-19T17:02:36.136Z,21.58
2022-08-19T17:07:40.085Z,21.61
2022-08-19T17:12:41.805Z,21.62
2022-08-19T17:17:43.518Z,21.58
2022-08-19T17:22:47.136Z,21.64
2022-08-19T17:27:49.203Z,21.62
2022-08-19T17:32:51.514Z,21.50
2022-08-19T17:37:54.674Z,21.40
2022-08-19T17:42:56.768Z,21.48
2022-08-19T17:47:58.948Z,21.52
2022-08-19T17:53:02.657Z,21.38
2022-08-19T17:58:05.273Z,21.15
2022-08-19T18:03:10.316Z,21.04
2022-08-19T18:08:15.956Z,20.97
2022-08-19T18:13:18.257Z,20.86
2022-08-19T18:18:20.305Z,20.77
2022-08-19T18:23:45.503Z,20.67
2022-08-19T18:28:49.986Z,20.66
2022-08-19T18:33:51.959Z,20.58
2022-08-19T18:38:55.074Z,20.67
2022-08-19T18:43:56.929Z,20.67
2022-08-19T18:48:58.665Z,20.64
2022-08-19T18:54:02.164Z,20.69
2022-08-19T18:59:04.126Z,20.64
2022-08-19T19:04:09.078Z,20.65
2022-08-19T19:09:15.740Z,20.65
2022-08-19T19:14:45.735Z,20.59
2022-08-19T19:19:44.738Z,20.64
2022-08-19T19:24:47.851Z,20.71
2022-08-19T19:29:52.310Z,20.74
2022-08-19T19:34:54.593Z,20.78
2022-08-19T19:39:57.727Z,20.85
2022-08-19T19:44:59.593Z,20.75
2022-08-19T19:50:14.273Z,20.72
2022-08-19T19:55:18.741Z,20.71
2022-08-19T20:00:21.431Z,20.69
2022-08-19T20:05:23.659Z,20.70
2022-08-19T20:10:27.186Z,20.75
2022-08-19T20:15:29.430Z,20.69
2022-08-19T20:20:31.819Z,20.69
2022-08-19T20:25:37.090Z,20.66
2022-08-19T20:30:44.418Z,20.61
2022-08-19T20:35:48.387Z,20.57
2022-08-19T20:40:51.530Z,20.53
2022-08-19T20:45:54.276Z,20.51
2022-08-19T20:50:56.564Z,20.53
2022-08-19T20:56:00.174Z,20.52
2022-08-19T21:01:03.749Z,20.42
2022-08-19T21:06:05.917Z,20.39
2022-08-19T21:11:09.691Z,20.27
2022-08-19T21:16:11.433Z,20.23
2022-08-19T21:21:13.309Z,20.24
2022-08-19T21:26:16.521Z,20.25
2022-08-19T21:31:18.364Z,20.23
2022-08-19T21:36:20.109Z,20.26
2022-08-19T21:41:23.628Z,20.32
2022-08-19T21:46:26.040Z,20.32
2022-08-19T21:56:49.692Z,20.40
2022-08-19T22:02:01.769Z,20.41
2022-08-19T22:07:13.937Z,20.43
2022-08-19T22:12:22.805Z,20.48
2022-08-19T22:17:25.603Z,20.46
2022-08-19T22:22:30.333Z,20.43
2022-08-19T22:27:33.495Z,20.45
2022-08-19T22:32:35.387Z,20.46
2022-08-19T22:37:37.145Z,20.44
2022-08-19T22:42:40.542Z,20.42
2022-08-19T22:47:42.656Z,20.51
2022-08-19T22:52:51.628Z,20.46
2022-08-19T22:57:56.395Z,20.50
2022-08-19T23:02:58.874Z,20.48
2022-08-19T23:08:00.614Z,20.42
2022-08-19T23:13:03.948Z,20.55
2022-08-19T23:18:06.031Z,20.49
2022-08-19T23:23:10.338Z,20.45
2022-08-19T23:28:13.671Z,20.40
2022-08-19T23:33:17.557Z,20.42
2022-08-19T23:38:19.870Z,20.34
2022-08-19T23:43:25.179Z,20.37
2022-08-19T23:48:28.322Z,20.31
2022-08-19T23:53:30.707Z,20.23
2022-08-19T23:58:35.684Z,20.19
